メインページ
METAR-TAF:

METAR-TAF

空港 :

ラブアン空港

ラブアン, マレーシア

緯度: 05-18N, 経度: 115-15E, 海抜: 30m

現時点の気象観測

当レポートは46分前の04:00(UTC)に作成
南西の風 3kt、からの間で変化する
気温 31°C
湿度 71%
気圧 1010 hPa
視程10km以上
高度1500ftの雲はほとんどない

METAR: WBKL 180400Z 22003KT 180V350 9999 FEW015 31/25 Q1010

時間: 12:46 (04:46 UTC)

予報

当レポートは5時間46分前の23:00(UTC)に作成
予報は18日の 00時(UTC)から 19日の 00時(UTC)まで有効
西の風 5kt
視程10km以上
高度1500ftの雲はほとんどない
確率 30%
18日の 10時(UTC)から 18日の 14時(UTC)まで
視程: 3000m
高度1000ftの雲はほとんどない
高度1600ftの雲はほとんどない, 積乱雲.
高度3000ftの雲は散在している
激しい雷雨, 大雨,

TAF: WBKL 172300Z 1800/1900 28005KT 9999 FEW015 PROB30 1810/1814 3000 +TSRA FEW010 FEW016CB SCT030

4,000以上の空港の気象観測と天気予報(METAR報とTAF報)

利用可能な観測所は地図上に黄色い丸と赤い丸で示す。

丸の上にカーソルを重ねると観測所名を参照できる。

次にクリックすると気象観測と天気予報を参照できる。

マップの切り替え:黒色「×」印の緑ボタンをクリックして拡大、「-」印の緑ボタンをクリックして縮小、緑色の三角印をクリックして隣りの地図に切り替え


METAR-TAF: